sensor_id;sensor_type;location;lat;lon;timestamp;pressure;altitude;pressure_sealevel;temperature;humidity
78625;BME280;67944;0.000;0.000;2023-08-01T00:00:25;99488.84;;;25.67;43.23
78625;BME280;67944;0.000;0.000;2023-08-01T00:02:51;99483.50;;;25.67;42.77
78625;BME280;67944;0.000;0.000;2023-08-01T00:05:17;99497.91;;;25.66;43.27
78625;BME280;67944;0.000;0.000;2023-08-01T00:07:43;99487.22;;;25.66;43.09
78625;BME280;67944;0.000;0.000;2023-08-01T00:10:08;99466.94;;;25.65;42.66
78625;BME280;67944;0.000;0.000;2023-08-01T00:12:34;99458.69;;;25.67;43.09
78625;BME280;67944;0.000;0.000;2023-08-01T00:15:00;99450.13;;;25.65;42.81
78625;BME280;67944;0.000;0.000;2023-08-01T00:17:25;99440.50;;;25.64;42.62
78625;BME280;67944;0.000;0.000;2023-08-01T00:19:51;99444.22;;;25.63;43.47
78625;BME280;67944;0.000;0.000;2023-08-01T00:22:16;99426.56;;;25.61;43.09
78625;BME280;67944;0.000;0.000;2023-08-01T00:24:42;99415.91;;;25.61;42.94
78625;BME280;67944;0.000;0.000;2023-08-01T00:27:07;99395.63;;;25.60;43.24
78625;BME280;67944;0.000;0.000;2023-08-01T00:29:35;99391.34;;;25.59;43.27
78625;BME280;67944;0.000;0.000;2023-08-01T00:32:00;99390.53;;;25.59;43.85
78625;BME280;67944;0.000;0.000;2023-08-01T00:34:26;99384.38;;;25.58;42.75
78625;BME280;67944;0.000;0.000;2023-08-01T00:36:51;99384.38;;;25.58;43.00
78625;BME280;67944;0.000;0.000;2023-08-01T00:39:17;99381.13;;;25.56;43.00
78625;BME280;67944;0.000;0.000;2023-08-01T00:41:42;99374.19;;;25.55;43.43
78625;BME280;67944;0.000;0.000;2023-08-01T00:44:08;99362.97;;;25.53;43.02
78625;BME280;67944;0.000;0.000;2023-08-01T00:46:33;99362.16;;;25.53;43.65
78625;BME280;67944;0.000;0.000;2023-08-01T00:48:58;99346.41;;;25.51;44.14
78625;BME280;67944;0.000;0.000;2023-08-01T00:51:26;99340.28;;;25.51;43.31
78625;BME280;67944;0.000;0.000;2023-08-01T00:53:53;99343.97;;;25.50;43.50
78625;BME280;67944;0.000;0.000;2023-08-01T00:56:19;99348.50;;;25.49;43.95
78625;BME280;67944;0.000;0.000;2023-08-01T00:58:45;99362.88;;;25.48;43.72
78625;BME280;67944;0.000;0.000;2023-08-01T01:01:10;99366.59;;;25.47;43.94
78625;BME280;67944;0.000;0.000;2023-08-01T01:03:36;99370.88;;;25.48;43.84
78625;BME280;67944;0.000;0.000;2023-08-01T01:08:52;99383.16;;;25.49;44.14
78625;BME280;67944;0.000;0.000;2023-08-01T01:11:19;99380.50;;;25.49;43.32
78625;BME280;67944;0.000;0.000;2023-08-01T01:13:44;99372.72;;;25.48;43.84
78625;BME280;67944;0.000;0.000;2023-08-01T01:16:09;99371.13;;;25.47;43.84
78625;BME280;67944;0.000;0.000;2023-08-01T01:18:35;99364.16;;;25.46;44.27
78625;BME280;67944;0.000;0.000;2023-08-01T01:21:00;99373.22;;;25.45;44.13
78625;BME280;67944;0.000;0.000;2023-08-01T01:23:27;99361.16;;;25.42;44.63
78625;BME280;67944;0.000;0.000;2023-08-01T01:25:54;99355.03;;;25.42;45.40
78625;BME280;67944;0.000;0.000;2023-08-01T01:28:22;99359.53;;;25.41;44.99
78625;BME280;67944;0.000;0.000;2023-08-01T01:30:49;99357.34;;;25.38;45.11
78625;BME280;67944;0.000;0.000;2023-08-01T01:33:14;99354.91;;;25.37;45.64
78625;BME280;67944;0.000;0.000;2023-08-01T01:35:40;99350.88;;;25.34;45.94
78625;BME280;67944;0.000;0.000;2023-08-01T01:38:06;99357.28;;;25.33;45.59
78625;BME280;67944;0.000;0.000;2023-08-01T01:40:32;99354.03;;;25.31;45.76
78625;BME280;67944;0.000;0.000;2023-08-01T01:42:59;99358.78;;;25.29;46.14
78625;BME280;67944;0.000;0.000;2023-08-01T01:45:25;99361.94;;;25.26;46.02
78625;BME280;67944;0.000;0.000;2023-08-01T01:47:50;99353.94;;;25.26;46.90
78625;BME280;67944;0.000;0.000;2023-08-01T01:50:16;99343.50;;;25.24;46.87
78625;BME280;67944;0.000;0.000;2023-08-01T01:52:41;99337.59;;;25.22;46.41
78625;BME280;67944;0.000;0.000;2023-08-01T01:55:07;99328.22;;;25.20;46.53
78625;BME280;67944;0.000;0.000;2023-08-01T01:57:32;99325.56;;;25.20;46.92
78625;BME280;67944;0.000;0.000;2023-08-01T01:59:58;99330.31;;;25.18;47.07
78625;BME280;67944;0.000;0.000;2023-08-01T02:02:23;99323.38;;;25.17;47.35
78625;BME280;67944;0.000;0.000;2023-08-01T02:04:50;99310.28;;;25.15;47.63
78625;BME280;67944;0.000;0.000;2023-08-01T02:07:15;99295.34;;;25.14;47.15
78625;BME280;67944;0.000;0.000;2023-08-01T02:09:41;99281.44;;;25.12;47.94
78625;BME280;67944;0.000;0.000;2023-08-01T02:12:07;99284.09;;;25.12;48.12
78625;BME280;67944;0.000;0.000;2023-08-01T02:14:35;99288.63;;;25.12;47.63
78625;BME280;67944;0.000;0.000;2023-08-01T02:17:00;99276.38;;;25.11;48.35
78625;BME280;67944;0.000;0.000;2023-08-01T02:19:26;99273.16;;;25.09;48.63
78625;BME280;67944;0.000;0.000;2023-08-01T02:21:51;99276.06;;;25.07;48.24
78625;BME280;67944;0.000;0.000;2023-08-01T02:24:17;99269.91;;;25.07;48.04
78625;BME280;67944;0.000;0.000;2023-08-01T02:26:43;99257.63;;;25.06;48.16
78625;BME280;67944;0.000;0.000;2023-08-01T02:29:08;99244.56;;;25.04;48.72
78625;BME280;67944;0.000;0.000;2023-08-01T02:31:34;99254.41;;;25.04;48.32
78625;BME280;67944;0.000;0.000;2023-08-01T02:34:00;99259.97;;;25.02;48.53
78625;BME280;67944;0.000;0.000;2023-08-01T02:36:26;99271.44;;;25.03;48.94
78625;BME280;67944;0.000;0.000;2023-08-01T02:38:51;99262.88;;;25.01;49.51
78625;BME280;67944;0.000;0.000;2023-08-01T02:41:17;99254.31;;;24.99;49.42
78625;BME280;67944;0.000;0.000;2023-08-01T02:43:42;99247.34;;;24.98;48.88
78625;BME280;67944;0.000;0.000;2023-08-01T02:46:08;99237.75;;;24.97;49.32
78625;BME280;67944;0.000;0.000;2023-08-01T02:48:33;99245.72;;;24.97;49.85
78625;BME280;67944;0.000;0.000;2023-08-01T02:51:00;99232.66;;;24.95;49.91
78625;BME280;67944;0.000;0.000;2023-08-01T02:53:26;99223.84;;;24.94;50.10
78625;BME280;67944;0.000;0.000;2023-08-01T02:55:51;99202.53;;;24.94;49.98
78625;BME280;67944;0.000;0.000;2023-08-01T02:58:17;99197.66;;;24.91;49.43
78625;BME280;67944;0.000;0.000;2023-08-01T03:00:42;99188.63;;;24.92;50.00
78625;BME280;67944;0.000;0.000;2023-08-01T03:03:08;99197.66;;;24.91;49.93
78625;BME280;67944;0.000;0.000;2023-08-01T03:05:35;99196.84;;;24.91;49.89
78625;BME280;67944;0.000;0.000;2023-08-01T03:08:01;99194.47;;;24.89;49.91
78625;BME280;67944;0.000;0.000;2023-08-01T03:10:27;99198.97;;;24.89;50.23
78625;BME280;67944;0.000;0.000;2023-08-01T03:12:53;99208.81;;;24.88;50.68
78625;BME280;67944;0.000;0.000;2023-08-01T03:15:18;99204.31;;;24.89;50.56
78625;BME280;67944;0.000;0.000;2023-08-01T03:17:44;99211.47;;;24.88;50.42
78625;BME280;67944;0.000;0.000;2023-08-01T03:20:09;99215.44;;;24.86;50.67
78625;BME280;67944;0.000;0.000;2023-08-01T03:22:40;99210.34;;;24.84;50.18
78625;BME280;67944;0.000;0.000;2023-08-01T03:25:06;99221.47;;;24.81;50.73
78625;BME280;67944;0.000;0.000;2023-08-01T03:27:34;99222.16;;;24.77;50.76
78625;BME280;67944;0.000;0.000;2023-08-01T03:30:00;99226.09;;;24.74;50.99
78625;BME280;67944;0.000;0.000;2023-08-01T03:32:26;99228.44;;;24.71;51.02
78625;BME280;67944;0.000;0.000;2023-08-01T03:34:51;99228.13;;;24.67;52.01
78625;BME280;67944;0.000;0.000;2023-08-01T03:37:17;99237.63;;;24.63;51.93
78625;BME280;67944;0.000;0.000;2023-08-01T03:39:43;99234.38;;;24.61;51.80
78625;BME280;67944;0.000;0.000;2023-08-01T03:42:09;99238.31;;;24.58;51.76
78625;BME280;67944;0.000;0.000;2023-08-01T03:44:34;99241.47;;;24.55;52.62
78625;BME280;67944;0.000;0.000;2023-08-01T03:47:00;99232.91;;;24.53;51.90
78625;BME280;67944;0.000;0.000;2023-08-01T03:49:25;99234.16;;;24.51;52.58
78625;BME280;67944;0.000;0.000;2023-08-01T03:51:51;99236.25;;;24.49;52.43
78625;BME280;67944;0.000;0.000;2023-08-01T03:54:16;99238.34;;;24.47;52.53
78625;BME280;67944;0.000;0.000;2023-08-01T03:56:42;99228.78;;;24.46;53.27
78625;BME280;67944;0.000;0.000;2023-08-01T03:59:12;99204.25;;;24.44;52.78
78625;BME280;67944;0.000;0.000;2023-08-01T04:01:38;99209.78;;;24.42;53.30
78625;BME280;67944;0.000;0.000;2023-08-01T04:04:03;99201.47;;;24.39;52.93
78625;BME280;67944;0.000;0.000;2023-08-01T04:06:29;99197.19;;;24.38;53.59
78625;BME280;67944;0.000;0.000;2023-08-01T04:08:54;99191.53;;;24.34;53.42
78625;BME280;67944;0.000;0.000;2023-08-01T04:11:22;99184.00;;;24.31;53.10
78625;BME280;67944;0.000;0.000;2023-08-01T04:13:47;99188.19;;;24.27;53.76
78625;BME280;67944;0.000;0.000;2023-08-01T04:16:13;99178.03;;;24.24;53.34
78625;BME280;67944;0.000;0.000;2023-08-01T04:18:38;99174.53;;;24.23;53.55
78625;BME280;67944;0.000;0.000;2023-08-01T04:21:04;99177.78;;;24.25;53.59
78625;BME280;67944;0.000;0.000;2023-08-01T04:23:29;99173.03;;;24.27;54.02
78625;BME280;67944;0.000;0.000;2023-08-01T04:25:55;99185.28;;;24.29;54.17
78625;BME280;67944;0.000;0.000;2023-08-01T04:28:20;99181.56;;;24.30;54.52
78625;BME280;67944;0.000;0.000;2023-08-01T04:30:50;99169.91;;;24.31;53.96
78625;BME280;67944;0.000;0.000;2023-08-01T04:33:15;99179.25;;;24.33;54.04
78625;BME280;67944;0.000;0.000;2023-08-01T04:35:41;99182.50;;;24.35;54.47
78625;BME280;67944;0.000;0.000;2023-08-01T04:38:07;99191.28;;;24.36;54.06
78625;BME280;67944;0.000;0.000;2023-08-01T04:40:34;99195.34;;;24.38;54.60
78625;BME280;67944;0.000;0.000;2023-08-01T04:43:01;99202.28;;;24.39;54.38
78625;BME280;67944;0.000;0.000;2023-08-01T04:45:26;99199.16;;;24.42;54.25
78625;BME280;67944;0.000;0.000;2023-08-01T04:47:52;99195.44;;;24.43;54.93
78625;BME280;67944;0.000;0.000;2023-08-01T04:50:18;99210.13;;;24.46;54.01
78625;BME280;67944;0.000;0.000;2023-08-01T04:52:43;99209.06;;;24.47;54.30
78625;BME280;67944;0.000;0.000;2023-08-01T04:55:08;99204.31;;;24.49;54.46
78625;BME280;67944;0.000;0.000;2023-08-01T04:57:34;99213.91;;;24.50;54.17
78625;BME280;67944;0.000;0.000;2023-08-01T04:59:59;99215.53;;;24.51;54.01
78625;BME280;67944;0.000;0.000;2023-08-01T05:02:25;99235.78;;;24.52;54.73
78625;BME280;67944;0.000;0.000;2023-08-01T05:04:51;99268.31;;;24.54;54.51
78625;BME280;67944;0.000;0.000;2023-08-01T05:07:17;99287.50;;;24.56;54.11
78625;BME280;67944;0.000;0.000;2023-08-01T05:09:42;99276.88;;;24.56;54.33
78625;BME280;67944;0.000;0.000;2023-08-01T05:12:08;99274.22;;;24.56;54.62
78625;BME280;67944;0.000;0.000;2023-08-01T05:14:34;99253.94;;;24.55;54.80
78625;BME280;67944;0.000;0.000;2023-08-01T05:17:00;99208.69;;;24.55;54.28
78625;BME280;67944;0.000;0.000;2023-08-01T05:19:25;99158.38;;;24.53;54.27
78625;BME280;67944;0.000;0.000;2023-08-01T05:21:51;99157.56;;;24.53;54.55
78625;BME280;67944;0.000;0.000;2023-08-01T05:24:16;99144.25;;;24.53;54.88
78625;BME280;67944;0.000;0.000;2023-08-01T05:26:42;99134.16;;;24.55;54.55
78625;BME280;67944;0.000;0.000;2023-08-01T05:29:07;99150.13;;;24.55;54.21
78625;BME280;67944;0.000;0.000;2023-08-01T05:31:33;99158.94;;;24.55;54.59
78625;BME280;67944;0.000;0.000;2023-08-01T05:33:58;99166.69;;;24.57;53.92
78625;BME280;67944;0.000;0.000;2023-08-01T05:36:23;99181.63;;;24.58;54.55
78625;BME280;67944;0.000;0.000;2023-08-01T05:38:49;99177.91;;;24.59;53.36
78625;BME280;67944;0.000;0.000;2023-08-01T05:41:14;99182.19;;;24.60;53.36
78625;BME280;67944;0.000;0.000;2023-08-01T05:43:40;99168.88;;;24.60;54.17
78625;BME280;67944;0.000;0.000;2023-08-01T05:46:06;99161.47;;;24.62;53.67
78625;BME280;67944;0.000;0.000;2023-08-01T05:48:31;99164.13;;;24.62;54.18
78625;BME280;67944;0.000;0.000;2023-08-01T05:50:56;99163.91;;;24.64;54.17
78625;BME280;67944;0.000;0.000;2023-08-01T05:53:23;99167.38;;;24.64;53.48
78625;BME280;67944;0.000;0.000;2023-08-01T05:55:49;99163.91;;;24.64;53.56
78625;BME280;67944;0.000;0.000;2023-08-01T05:58:15;99154.84;;;24.65;54.06
78625;BME280;67944;0.000;0.000;2023-08-01T06:00:41;99159.94;;;24.66;53.44
78625;BME280;67944;0.000;0.000;2023-08-01T06:03:06;99157.06;;;24.68;54.16
78625;BME280;67944;0.000;0.000;2023-08-01T06:05:32;99145.59;;;24.67;53.96
78625;BME280;67944;0.000;0.000;2023-08-01T06:07:57;99147.22;;;24.68;53.43
78625;BME280;67944;0.000;0.000;2023-08-01T06:10:23;99141.88;;;24.68;53.67
78625;BME280;67944;0.000;0.000;2023-08-01T06:12:48;99155.75;;;24.70;53.06
78625;BME280;67944;0.000;0.000;2023-08-01T06:15:14;99166.97;;;24.72;53.79
78625;BME280;67944;0.000;0.000;2023-08-01T06:17:39;99172.84;;;24.74;53.92
78625;BME280;67944;0.000;0.000;2023-08-01T06:20:05;99183.28;;;24.76;53.03
78625;BME280;67944;0.000;0.000;2023-08-01T06:22:31;99181.19;;;24.78;53.91
78625;BME280;67944;0.000;0.000;2023-08-01T06:24:56;99184.19;;;24.81;53.90
78625;BME280;67944;0.000;0.000;2023-08-01T06:27:22;99182.91;;;24.84;53.29
78625;BME280;67944;0.000;0.000;2023-08-01T06:29:47;99165.88;;;24.85;52.98
78625;BME280;67944;0.000;0.000;2023-08-01T06:32:13;99170.72;;;24.88;52.90
78625;BME280;67944;0.000;0.000;2023-08-01T06:34:38;99189.13;;;24.89;52.95
78625;BME280;67944;0.000;0.000;2023-08-01T06:37:04;99179.03;;;24.91;53.42
78625;BME280;67944;0.000;0.000;2023-08-01T06:39:29;99186.56;;;24.94;53.17
78625;BME280;67944;0.000;0.000;2023-08-01T06:41:55;99179.16;;;24.97;53.17
78625;BME280;67944;0.000;0.000;2023-08-01T06:44:21;99183.19;;;24.99;53.36
78625;BME280;67944;0.000;0.000;2023-08-01T06:46:46;99177.63;;;25.01;53.06
78625;BME280;67944;0.000;0.000;2023-08-01T06:49:11;99175.53;;;25.03;52.66
78625;BME280;67944;0.000;0.000;2023-08-01T06:51:37;99175.28;;;25.04;53.56
78625;BME280;67944;0.000;0.000;2023-08-01T06:54:02;99188.38;;;25.06;53.25
78625;BME280;67944;0.000;0.000;2023-08-01T06:56:28;99180.16;;;25.07;53.33
78625;BME280;67944;0.000;0.000;2023-08-01T06:58:53;99178.03;;;25.09;53.42
78625;BME280;67944;0.000;0.000;2023-08-01T07:01:19;99185.81;;;25.11;52.52
78625;BME280;67944;0.000;0.000;2023-08-01T07:03:44;99192.72;;;25.12;52.39
78625;BME280;67944;0.000;0.000;2023-08-01T07:06:10;99178.63;;;25.11;53.22
78625;BME280;67944;0.000;0.000;2023-08-01T07:08:36;99186.84;;;25.10;52.49
78625;BME280;67944;0.000;0.000;2023-08-01T07:11:01;99181.75;;;25.08;52.62
78625;BME280;67944;0.000;0.000;2023-08-01T07:13:27;99184.41;;;25.08;52.65
78625;BME280;67944;0.000;0.000;2023-08-01T07:15:53;99180.16;;;25.07;52.45
78625;BME280;67944;0.000;0.000;2023-08-01T07:18:19;99172.38;;;25.06;52.43
78625;BME280;67944;0.000;0.000;2023-08-01T07:20:44;99185.72;;;25.06;52.60
78625;BME280;67944;0.000;0.000;2023-08-01T07:23:10;99189.19;;;25.06;52.67
78625;BME280;67944;0.000;0.000;2023-08-01T07:25:35;99195.31;;;25.07;52.27
78625;BME280;67944;0.000;0.000;2023-08-01T07:28:01;99191.59;;;25.08;52.82
78625;BME280;67944;0.000;0.000;2023-08-01T07:30:27;99199.38;;;25.09;52.37
78625;BME280;67944;0.000;0.000;2023-08-01T07:32:52;99192.72;;;25.12;53.24
78625;BME280;67944;0.000;0.000;2023-08-01T07:35:18;99207.66;;;25.13;52.59
78625;BME280;67944;0.000;0.000;2023-08-01T07:37:43;99209.03;;;25.15;53.02
78625;BME280;67944;0.000;0.000;2023-08-01T07:40:09;99206.13;;;25.17;52.55
78625;BME280;67944;0.000;0.000;2023-08-01T07:42:35;99209.38;;;25.19;53.15
78625;BME280;67944;0.000;0.000;2023-08-01T07:45:00;99218.75;;;25.21;53.30
78625;BME280;67944;0.000;0.000;2023-08-01T07:47:26;99219.56;;;25.22;52.93
78625;BME280;67944;0.000;0.000;2023-08-01T07:49:52;99226.25;;;25.24;52.78
78625;BME280;67944;0.000;0.000;2023-08-01T07:52:18;99224.97;;;25.27;52.48
78625;BME280;67944;0.000;0.000;2023-08-01T07:54:43;99235.16;;;25.30;52.77
78625;BME280;67944;0.000;0.000;2023-08-01T07:57:08;99244.75;;;25.31;52.26
78625;BME280;67944;0.000;0.000;2023-08-01T07:59:34;99253.06;;;25.35;52.89
78625;BME280;67944;0.000;0.000;2023-08-01T08:02:00;99268.81;;;25.36;53.27
78625;BME280;67944;0.000;0.000;2023-08-01T08:04:25;99266.72;;;25.38;52.48
78625;BME280;67944;0.000;0.000;2023-08-01T08:06:51;99258.25;;;25.41;52.38
78625;BME280;67944;0.000;0.000;2023-08-01T08:09:17;99256.16;;;25.43;52.27
78625;BME280;67944;0.000;0.000;2023-08-01T08:11:42;99266.34;;;25.46;52.07
78625;BME280;67944;0.000;0.000;2023-08-01T08:14:08;99268.75;;;25.48;52.78
78625;BME280;67944;0.000;0.000;2023-08-01T08:16:33;99256.25;;;25.48;52.07
78625;BME280;67944;0.000;0.000;2023-08-01T08:18:59;99269.91;;;25.52;52.52
78625;BME280;67944;0.000;0.000;2023-08-01T08:21:25;99268.03;;;25.52;53.06
78625;BME280;67944;0.000;0.000;2023-08-01T08:23:50;99265.94;;;25.54;52.08
78625;BME280;67944;0.000;0.000;2023-08-01T08:26:16;99255.00;;;25.56;52.36
78625;BME280;67944;0.000;0.000;2023-08-01T08:28:41;99252.69;;;25.59;52.63
78625;BME280;67944;0.000;0.000;2023-08-01T08:31:07;99253.50;;;25.60;52.51
78625;BME280;67944;0.000;0.000;2023-08-01T08:33:33;99266.56;;;25.61;52.39
78625;BME280;67944;0.000;0.000;2023-08-01T08:35:58;99269.84;;;25.64;52.02
78625;BME280;67944;0.000;0.000;2023-08-01T08:38:24;99265.88;;;25.66;51.56
78625;BME280;67944;0.000;0.000;2023-08-01T08:41:10;99266.47;;;25.68;51.42
78625;BME280;67944;0.000;0.000;2023-08-01T08:43:36;99264.34;;;25.70;51.17
78625;BME280;67944;0.000;0.000;2023-08-01T08:46:04;99268.66;;;25.71;51.98
78625;BME280;67944;0.000;0.000;2023-08-01T08:48:30;99271.06;;;25.73;51.20
78625;BME280;67944;0.000;0.000;2023-08-01T08:51:01;99263.41;;;25.76;51.57
78625;BME280;67944;0.000;0.000;2023-08-01T08:53:27;99263.13;;;25.78;51.67
78625;BME280;67944;0.000;0.000;2023-08-01T08:55:52;99269.84;;;25.80;51.27
78625;BME280;67944;0.000;0.000;2023-08-01T08:58:18;99267.16;;;25.80;51.46
78625;BME280;67944;0.000;0.000;2023-08-01T09:00:45;99268.78;;;25.81;50.55
78625;BME280;67944;0.000;0.000;2023-08-01T09:03:11;99273.31;;;25.81;50.25
78625;BME280;67944;0.000;0.000;2023-08-01T09:08:17;99284.06;;;25.86;50.87
78625;BME280;67944;0.000;0.000;2023-08-01T09:10:43;99278.50;;;25.87;50.38
78625;BME280;67944;0.000;0.000;2023-08-01T09:13:09;99284.41;;;25.89;50.77
78625;BME280;67944;0.000;0.000;2023-08-01T09:15:35;99282.28;;;25.91;50.17
78625;BME280;67944;0.000;0.000;2023-08-01T09:18:06;99279.94;;;25.95;50.27
78625;BME280;67944;0.000;0.000;2023-08-01T09:20:52;99283.72;;;25.99;50.20
78625;BME280;67944;0.000;0.000;2023-08-01T09:23:17;99284.84;;;26.03;50.16
78625;BME280;67944;0.000;0.000;2023-08-01T09:25:43;99286.22;;;26.06;49.79
78625;BME280;67944;0.000;0.000;2023-08-01T09:28:20;99282.28;;;26.08;50.10
78625;BME280;67944;0.000;0.000;2023-08-01T09:30:51;99280.97;;;26.11;50.47
78625;BME280;67944;0.000;0.000;2023-08-01T09:33:18;99282.59;;;26.12;49.76
78625;BME280;67944;0.000;0.000;2023-08-01T09:35:44;99282.91;;;26.15;50.16
78625;BME280;67944;0.000;0.000;2023-08-01T09:38:14;99289.88;;;26.16;50.22
78625;BME280;67944;0.000;0.000;2023-08-01T09:40:42;99290.16;;;26.20;49.74
78625;BME280;67944;0.000;0.000;2023-08-01T09:43:09;99291.78;;;26.21;49.95
78625;BME280;67944;0.000;0.000;2023-08-01T09:45:34;99295.81;;;26.23;49.38
78625;BME280;67944;0.000;0.000;2023-08-01T09:48:00;99298.00;;;26.26;50.00
78625;BME280;67944;0.000;0.000;2023-08-01T09:50:26;99303.09;;;26.28;49.58
78625;BME280;67944;0.000;0.000;2023-08-01T09:52:51;99299.97;;;26.31;49.87
78625;BME280;67944;0.000;0.000;2023-08-01T09:55:31;99285.56;;;26.32;49.25
78625;BME280;67944;0.000;0.000;2023-08-01T09:57:59;99293.09;;;26.35;49.27
78625;BME280;67944;0.000;0.000;2023-08-01T10:00:29;99296.56;;;26.36;49.43
78625;BME280;67944;0.000;0.000;2023-08-01T10:02:59;99300.84;;;26.37;49.38
78625;BME280;67944;0.000;0.000;2023-08-01T10:05:29;99303.28;;;26.38;49.00
78625;BME280;67944;0.000;0.000;2023-08-01T10:07:59;99299.56;;;26.39;48.96
78625;BME280;67944;0.000;0.000;2023-08-01T10:10:25;99312.66;;;26.41;48.28
78625;BME280;67944;0.000;0.000;2023-08-01T10:12:51;99304.38;;;26.42;47.99
78625;BME280;67944;0.000;0.000;2023-08-01T10:15:18;99297.97;;;26.43;47.83
78625;BME280;67944;0.000;0.000;2023-08-01T10:17:43;99299.84;;;26.43;47.76
78625;BME280;67944;0.000;0.000;2023-08-01T10:20:11;99306.81;;;26.44;47.66
78625;BME280;67944;0.000;0.000;2023-08-01T10:22:39;99301.22;;;26.45;47.17
78625;BME280;67944;0.000;0.000;2023-08-01T10:25:05;99294.00;;;26.46;46.87
78625;BME280;67944;0.000;0.000;2023-08-01T10:27:32;99307.94;;;26.48;46.77
78625;BME280;67944;0.000;0.000;2023-08-01T10:30:03;99303.16;;;26.50;47.00
78625;BME280;67944;0.000;0.000;2023-08-01T10:32:33;99309.06;;;26.52;46.83
78625;BME280;67944;0.000;0.000;2023-08-01T10:34:59;99302.66;;;26.53;46.31
78625;BME280;67944;0.000;0.000;2023-08-01T10:37:25;99306.94;;;26.54;46.14
78625;BME280;67944;0.000;0.000;2023-08-01T10:40:00;99310.19;;;26.56;46.48
78625;BME280;67944;0.000;0.000;2023-08-01T10:42:37;99314.47;;;26.57;46.01
78625;BME280;67944;0.000;0.000;2023-08-01T10:45:03;99318.50;;;26.59;45.66
78625;BME280;67944;0.000;0.000;2023-08-01T10:47:28;99317.22;;;26.62;45.16
78625;BME280;67944;0.000;0.000;2023-08-01T10:49:54;99320.69;;;26.62;45.26
78625;BME280;67944;0.000;0.000;2023-08-01T10:52:21;99326.84;;;26.63;44.78
78625;BME280;67944;0.000;0.000;2023-08-01T10:54:57;99333.78;;;26.64;44.92
78625;BME280;67944;0.000;0.000;2023-08-01T10:57:23;99325.50;;;26.66;44.72
78625;BME280;67944;0.000;0.000;2023-08-01T10:59:49;99337.00;;;26.66;44.24
78625;BME280;67944;0.000;0.000;2023-08-01T11:02:20;99323.41;;;26.68;44.29
78625;BME280;67944;0.000;0.000;2023-08-01T11:05:05;99331.41;;;26.68;44.33
78625;BME280;67944;0.000;0.000;2023-08-01T11:07:31;99337.56;;;26.68;43.93
78625;BME280;67944;0.000;0.000;2023-08-01T11:10:03;99333.84;;;26.69;44.03
78625;BME280;67944;0.000;0.000;2023-08-01T11:12:30;99345.34;;;26.70;43.43
78625;BME280;67944;0.000;0.000;2023-08-01T11:15:00;99343.47;;;26.70;43.63
78625;BME280;67944;0.000;0.000;2023-08-01T11:17:25;99339.75;;;26.71;43.02
78625;BME280;67944;0.000;0.000;2023-08-01T11:19:51;99337.63;;;26.73;42.61
78625;BME280;67944;0.000;0.000;2023-08-01T11:22:16;99341.69;;;26.76;43.03
78625;BME280;67944;0.000;0.000;2023-08-01T11:24:50;99339.34;;;26.79;43.06
78625;BME280;67944;0.000;0.000;2023-08-01T11:27:15;99341.25;;;26.84;42.84
78625;BME280;67944;0.000;0.000;2023-08-01T11:29:41;99343.66;;;26.85;42.01
78625;BME280;67944;0.000;0.000;2023-08-01T11:32:06;99343.41;;;26.87;42.75
78625;BME280;67944;0.000;0.000;2023-08-01T11:34:40;99335.97;;;26.89;42.30
78625;BME280;67944;0.000;0.000;2023-08-01T11:37:07;99344.53;;;26.91;42.15
78625;BME280;67944;0.000;0.000;2023-08-01T11:39:33;99334.19;;;26.94;42.08
78625;BME280;67944;0.000;0.000;2023-08-01T11:41:59;99339.03;;;26.98;41.91
78625;BME280;67944;0.000;0.000;2023-08-01T11:44:25;99351.91;;;27.01;41.57
78625;BME280;67944;0.000;0.000;2023-08-01T11:46:51;99359.44;;;27.04;41.85
78625;BME280;67944;0.000;0.000;2023-08-01T11:49:16;99365.34;;;27.06;41.48
78625;BME280;67944;0.000;0.000;2023-08-01T11:51:44;99360.53;;;27.08;41.54
78625;BME280;67944;0.000;0.000;2023-08-01T11:54:11;99368.28;;;27.09;41.43
78625;BME280;67944;0.000;0.000;2023-08-01T11:56:39;99369.09;;;27.10;41.50
78625;BME280;67944;0.000;0.000;2023-08-01T11:59:09;99363.75;;;27.10;41.09
78625;BME280;67944;0.000;0.000;2023-08-01T12:01:43;99367.25;;;27.10;41.26
78625;BME280;67944;0.000;0.000;2023-08-01T12:04:10;99357.59;;;27.09;41.23
78625;BME280;67944;0.000;0.000;2023-08-01T12:06:35;99354.94;;;27.09;41.38
78625;BME280;67944;0.000;0.000;2023-08-01T12:09:11;99364.81;;;27.09;41.51
78625;BME280;67944;0.000;0.000;2023-08-01T12:11:37;99367.50;;;27.09;41.37
78625;BME280;67944;0.000;0.000;2023-08-01T12:14:07;99364.81;;;27.09;41.28
78625;BME280;67944;0.000;0.000;2023-08-01T12:16:35;99369.09;;;27.10;41.43
78625;BME280;67944;0.000;0.000;2023-08-01T12:19:01;99357.34;;;27.11;41.13
78625;BME280;67944;0.000;0.000;2023-08-01T12:21:27;99379.78;;;27.10;41.09
78625;BME280;67944;0.000;0.000;2023-08-01T12:23:52;99363.75;;;27.10;41.37
78625;BME280;67944;0.000;0.000;2023-08-01T12:26:18;99366.19;;;27.11;41.32
78625;BME280;67944;0.000;0.000;2023-08-01T12:28:44;99356.56;;;27.10;41.14
78625;BME280;67944;0.000;0.000;2023-08-01T12:31:09;99361.66;;;27.12;40.96
78625;BME280;67944;0.000;0.000;2023-08-01T12:33:34;99364.31;;;27.12;40.84
78625;BME280;67944;0.000;0.000;2023-08-01T12:36:00;99367.00;;;27.12;40.56
78625;BME280;67944;0.000;0.000;2023-08-01T12:38:26;99374.75;;;27.13;41.04
78625;BME280;67944;0.000;0.000;2023-08-01T12:40:52;99380.91;;;27.14;40.72
78625;BME280;67944;0.000;0.000;2023-08-01T12:43:17;99388.38;;;27.12;40.41
78625;BME280;67944;0.000;0.000;2023-08-01T12:45:43;99387.81;;;27.10;40.13
78625;BME280;67944;0.000;0.000;2023-08-01T12:48:08;99387.00;;;27.09;39.81
78625;BME280;67944;0.000;0.000;2023-08-01T12:50:34;99377.13;;;27.10;40.07
78625;BME280;67944;0.000;0.000;2023-08-01T12:52:59;99385.94;;;27.10;39.89
78625;BME280;67944;0.000;0.000;2023-08-01T12:55:25;99382.47;;;27.10;39.65
78625;BME280;67944;0.000;0.000;2023-08-01T12:57:50;99378.19;;;27.09;39.57
78625;BME280;67944;0.000;0.000;2023-08-01T13:00:16;99378.44;;;27.07;39.59
78625;BME280;67944;0.000;0.000;2023-08-01T13:02:42;99374.94;;;27.07;39.24
78625;BME280;67944;0.000;0.000;2023-08-01T13:05:07;99374.94;;;27.07;39.32
78625;BME280;67944;0.000;0.000;2023-08-01T13:07:33;99376.03;;;27.06;39.25
78625;BME280;67944;0.000;0.000;2023-08-01T13:10:00;99380.56;;;27.05;39.64